sensor_id;sensor_type;location;lat;lon;timestamp;pressure;altitude;pressure_sealevel;temperature;humidity
49072;BME280;52656;52.610;10.236;2023-02-22T00:00:22;101189.69;;;9.45;80.11
49072;BME280;52656;52.610;10.236;2023-02-22T00:03:01;101185.47;;;9.38;80.94
49072;BME280;52656;52.610;10.236;2023-02-22T00:05:27;101189.09;;;9.34;81.10
49072;BME280;52656;52.610;10.236;2023-02-22T00:07:53;101183.88;;;9.31;81.22
49072;BME280;52656;52.610;10.236;2023-02-22T00:10:23;101187.31;;;9.34;80.74
49072;BME280;52656;52.610;10.236;2023-02-22T00:12:53;101184.78;;;9.31;80.95
49072;BME280;52656;52.610;10.236;2023-02-22T00:15:22;101190.81;;;9.35;81.13
49072;BME280;52656;52.610;10.236;2023-02-22T00:17:52;101187.19;;;9.39;81.07
49072;BME280;52656;52.610;10.236;2023-02-22T00:20:17;101183.88;;;9.32;81.33
49072;BME280;52656;52.610;10.236;2023-02-22T00:22:44;101177.84;;;9.27;81.14
49072;BME280;52656;52.610;10.236;2023-02-22T00:25:17;101176.09;;;9.26;81.00
49072;BME280;52656;52.610;10.236;2023-02-22T00:27:44;101180.50;;;9.26;81.37
49072;BME280;52656;52.610;10.236;2023-02-22T00:30:14;101180.56;;;9.24;81.56
49072;BME280;52656;52.610;10.236;2023-02-22T00:32:46;101181.47;;;9.23;81.44
49072;BME280;52656;52.610;10.236;2023-02-22T00:35:20;101179.75;;;9.21;81.24
49072;BME280;52656;52.610;10.236;2023-02-22T00:37:47;101177.84;;;9.27;80.92
49072;BME280;52656;52.610;10.236;2023-02-22T00:40:16;101179.63;;;9.27;80.54
49072;BME280;52656;52.610;10.236;2023-02-22T00:42:43;101176.97;;;9.27;80.83
49072;BME280;52656;52.610;10.236;2023-02-22T00:45:08;101182.25;;;9.27;80.68
49072;BME280;52656;52.610;10.236;2023-02-22T00:47:34;101180.75;;;9.16;81.47
49072;BME280;52656;52.610;10.236;2023-02-22T00:49:59;101178.91;;;9.20;81.29
49072;BME280;52656;52.610;10.236;2023-02-22T00:52:26;101182.38;;;9.22;81.04
49072;BME280;52656;52.610;10.236;2023-02-22T00:54:53;101175.28;;;9.24;80.77
49072;BME280;52656;52.610;10.236;2023-02-22T00:57:19;101182.34;;;9.24;80.98
49072;BME280;52656;52.610;10.236;2023-02-22T00:59:44;101179.75;;;9.22;81.54
49072;BME280;52656;52.610;10.236;2023-02-22T01:02:09;101174.34;;;9.25;80.79
49072;BME280;52656;52.610;10.236;2023-02-22T01:04:35;101180.38;;;9.30;80.54
49072;BME280;52656;52.610;10.236;2023-02-22T01:07:00;101173.25;;;9.34;79.88
49072;BME280;52656;52.610;10.236;2023-02-22T01:09:26;101181.13;;;9.35;79.91
49072;BME280;52656;52.610;10.236;2023-02-22T01:11:52;101175.81;;;9.37;79.64
49072;BME280;52656;52.610;10.236;2023-02-22T01:14:22;101173.09;;;9.40;79.97
49072;BME280;52656;52.610;10.236;2023-02-22T01:16:49;101170.38;;;9.41;79.69
49072;BME280;52656;52.610;10.236;2023-02-22T01:19:15;101170.38;;;9.41;79.56
49072;BME280;52656;52.610;10.236;2023-02-22T01:21:40;101162.50;;;9.40;79.98
49072;BME280;52656;52.610;10.236;2023-02-22T01:24:06;101166.09;;;9.37;80.07
49072;BME280;52656;52.610;10.236;2023-02-22T01:26:31;101161.06;;;9.28;80.59
49072;BME280;52656;52.610;10.236;2023-02-22T01:28:56;101158.34;;;9.31;80.49
49072;BME280;52656;52.610;10.236;2023-02-22T01:31:22;101157.44;;;9.32;79.91
49072;BME280;52656;52.610;10.236;2023-02-22T01:33:48;101153.06;;;9.31;79.93
49072;BME280;52656;52.610;10.236;2023-02-22T01:36:15;101145.28;;;9.25;80.27
49072;BME280;52656;52.610;10.236;2023-02-22T01:38:40;101140.97;;;9.21;80.66
49072;BME280;52656;52.610;10.236;2023-02-22T01:41:06;101144.53;;;9.20;80.36
49072;BME280;52656;52.610;10.236;2023-02-22T01:43:32;101137.59;;;9.16;80.91
49072;BME280;52656;52.610;10.236;2023-02-22T01:46:01;101143.19;;;9.05;81.44
49072;BME280;52656;52.610;10.236;2023-02-22T01:48:38;101134.28;;;9.09;80.65
49072;BME280;52656;52.610;10.236;2023-02-22T01:51:15;101137.72;;;9.13;80.62
49072;BME280;52656;52.610;10.236;2023-02-22T01:56:13;101133.06;;;9.21;80.08
49072;BME280;52656;52.610;10.236;2023-02-22T01:58:42;101130.41;;;9.21;80.21
49072;BME280;52656;52.610;10.236;2023-02-22T02:01:10;101128.59;;;9.23;80.04
49072;BME280;52656;52.610;10.236;2023-02-22T02:03:37;101125.91;;;9.25;80.03
49072;BME280;52656;52.610;10.236;2023-02-22T02:06:06;101128.50;;;9.26;79.73
49072;BME280;52656;52.610;10.236;2023-02-22T02:11:22;101131.19;;;9.25;79.66
49072;BME280;52656;52.610;10.236;2023-02-22T02:13:51;101124.13;;;9.25;79.64
49072;BME280;52656;52.610;10.236;2023-02-22T02:16:20;101124.19;;;9.24;79.38
49072;BME280;52656;52.610;10.236;2023-02-22T02:18:46;101121.53;;;9.24;79.41
49072;BME280;52656;52.610;10.236;2023-02-22T02:24:21;101108.38;;;9.22;79.42
49072;BME280;52656;52.610;10.236;2023-02-22T02:32:21;101110.22;;;9.18;79.79
49072;BME280;52656;52.610;10.236;2023-02-22T02:34:54;101108.41;;;9.21;79.84
49072;BME280;52656;52.610;10.236;2023-02-22T02:40:05;101098.81;;;9.16;79.72
49072;BME280;52656;52.610;10.236;2023-02-22T02:42:42;101099.66;;;9.18;79.48
49072;BME280;52656;52.610;10.236;2023-02-22T02:45:18;101101.47;;;9.16;79.91
49072;BME280;52656;52.610;10.236;2023-02-22T02:47:52;101095.31;;;9.16;79.68
49072;BME280;52656;52.610;10.236;2023-02-22T02:50:26;101091.75;;;9.17;79.77
49072;BME280;52656;52.610;10.236;2023-02-22T02:52:56;101093.59;;;9.15;80.45
49072;BME280;52656;52.610;10.236;2023-02-22T02:55:24;101095.31;;;9.16;80.20
49072;BME280;52656;52.610;10.236;2023-02-22T02:57:51;101099.91;;;9.09;81.26
49072;BME280;52656;52.610;10.236;2023-02-22T03:00:20;101099.09;;;9.07;81.15
49072;BME280;52656;52.610;10.236;2023-02-22T03:08:20;101082.41;;;9.05;81.62
49072;BME280;52656;52.610;10.236;2023-02-22T03:11:02;101091.25;;;9.04;81.59
49072;BME280;52656;52.610;10.236;2023-02-22T03:13:44;101083.16;;;9.10;81.44
49072;BME280;52656;52.610;10.236;2023-02-22T03:18:55;101074.50;;;9.05;81.21
49072;BME280;52656;52.610;10.236;2023-02-22T03:21:27;101071.78;;;9.07;81.32
49072;BME280;52656;52.610;10.236;2023-02-22T03:27:25;101068.50;;;8.99;81.72
49072;BME280;52656;52.610;10.236;2023-02-22T03:29:37;101069.53;;;8.93;82.63
49072;BME280;52656;52.610;10.236;2023-02-22T03:32:06;101063.78;;;8.79;83.63
49072;BME280;52656;52.610;10.236;2023-02-22T03:34:46;101067.56;;;8.69;84.29
49072;BME280;52656;52.610;10.236;2023-02-22T03:37:20;101072.13;;;8.62;84.76
49072;BME280;52656;52.610;10.236;2023-02-22T03:39:50;101067.53;;;8.70;84.10
49072;BME280;52656;52.610;10.236;2023-02-22T03:42:20;101066.47;;;8.77;83.58
49072;BME280;52656;52.610;10.236;2023-02-22T03:44:48;101064.75;;;8.75;83.88
49072;BME280;52656;52.610;10.236;2023-02-22T03:47:27;101071.88;;;8.71;83.90
49072;BME280;52656;52.610;10.236;2023-02-22T03:50:09;101073.19;;;8.56;84.85
49072;BME280;52656;52.610;10.236;2023-02-22T03:52:35;101065.38;;;8.52;85.63
49072;BME280;52656;52.610;10.236;2023-02-22T03:55:03;101073.06;;;8.61;85.02
49072;BME280;52656;52.610;10.236;2023-02-22T03:57:38;101076.91;;;8.48;86.38
49072;BME280;52656;52.610;10.236;2023-02-22T04:00:10;101068.09;;;8.49;86.01
49072;BME280;52656;52.610;10.236;2023-02-22T04:02:36;101070.06;;;8.40;86.71
49072;BME280;52656;52.610;10.236;2023-02-22T04:05:02;101072.97;;;8.30;87.87
49072;BME280;52656;52.610;10.236;2023-02-22T04:07:27;101062.50;;;8.61;85.86
49072;BME280;52656;52.610;10.236;2023-02-22T04:09:52;101062.66;;;8.55;86.28
49072;BME280;52656;52.610;10.236;2023-02-22T04:12:18;101063.97;;;8.71;85.00
49072;BME280;52656;52.610;10.236;2023-02-22T04:14:43;101067.34;;;8.76;84.31
49072;BME280;52656;52.610;10.236;2023-02-22T04:17:09;101071.31;;;8.92;83.22
49072;BME280;52656;52.610;10.236;2023-02-22T04:19:35;101066.91;;;8.93;83.27
49072;BME280;52656;52.610;10.236;2023-02-22T04:22:00;101056.22;;;8.65;84.51
49072;BME280;52656;52.610;10.236;2023-02-22T04:24:26;101062.03;;;8.78;84.17
49072;BME280;52656;52.610;10.236;2023-02-22T04:26:54;101061.19;;;8.77;84.09
49072;BME280;52656;52.610;10.236;2023-02-22T04:29:23;101064.56;;;8.48;85.40
49072;BME280;52656;52.610;10.236;2023-02-22T04:31:48;101065.44;;;8.50;85.90
49072;BME280;52656;52.610;10.236;2023-02-22T04:34:14;101069.31;;;8.35;86.43
49072;BME280;52656;52.610;10.236;2023-02-22T04:36:39;101070.81;;;8.10;88.09
49072;BME280;52656;52.610;10.236;2023-02-22T04:39:06;101063.16;;;8.35;87.09
49072;BME280;52656;52.610;10.236;2023-02-22T04:41:31;101057.97;;;8.32;87.12
49072;BME280;52656;52.610;10.236;2023-02-22T04:43:58;101055.97;;;8.40;86.60
49072;BME280;52656;52.610;10.236;2023-02-22T04:46:23;101054.63;;;8.24;87.29
49072;BME280;52656;52.610;10.236;2023-02-22T04:48:49;101063.59;;;8.16;87.81
49072;BME280;52656;52.610;10.236;2023-02-22T04:51:14;101058.31;;;8.16;87.43
49072;BME280;52656;52.610;10.236;2023-02-22T04:53:40;101060.91;;;7.81;89.02
49072;BME280;52656;52.610;10.236;2023-02-22T04:56:05;101047.41;;;7.57;90.17
49072;BME280;52656;52.610;10.236;2023-02-22T04:58:30;101055.34;;;7.56;91.77
49072;BME280;52656;52.610;10.236;2023-02-22T05:00:56;101054.50;;;7.93;88.89
49072;BME280;52656;52.610;10.236;2023-02-22T05:03:21;101043.25;;;7.84;88.76
49072;BME280;52656;52.610;10.236;2023-02-22T05:05:46;101052.63;;;7.60;90.42
49072;BME280;52656;52.610;10.236;2023-02-22T05:08:12;101055.16;;;7.65;90.71
49072;BME280;52656;52.610;10.236;2023-02-22T05:10:37;101055.22;;;7.62;91.05
49072;BME280;52656;52.610;10.236;2023-02-22T05:13:03;101055.97;;;7.67;90.84
49072;BME280;52656;52.610;10.236;2023-02-22T05:15:30;101052.50;;;7.65;91.01
49072;BME280;52656;52.610;10.236;2023-02-22T05:17:55;101050.91;;;7.58;90.77
49072;BME280;52656;52.610;10.236;2023-02-22T05:20:27;101052.97;;;7.44;91.08
49072;BME280;52656;52.610;10.236;2023-02-22T05:22:57;101054.59;;;7.49;90.57
49072;BME280;52656;52.610;10.236;2023-02-22T05:25:23;101053.09;;;7.39;90.66
49072;BME280;52656;52.610;10.236;2023-02-22T05:27:53;101048.50;;;7.07;92.70
49072;BME280;52656;52.610;10.236;2023-02-22T05:30:21;101053.31;;;6.86;93.80
49072;BME280;52656;52.610;10.236;2023-02-22T05:32:49;101045.66;;;6.73;95.02
49072;BME280;52656;52.610;10.236;2023-02-22T05:35:14;101044.47;;;6.43;96.45
49072;BME280;52656;52.610;10.236;2023-02-22T05:37:40;101054.56;;;6.14;99.20
49072;BME280;52656;52.610;10.236;2023-02-22T05:40:05;101051.38;;;5.96;100.00
49072;BME280;52656;52.610;10.236;2023-02-22T05:42:31;101046.53;;;6.24;100.00
49072;BME280;52656;52.610;10.236;2023-02-22T05:44:57;101057.47;;;6.52;97.25
49072;BME280;52656;52.610;10.236;2023-02-22T05:47:23;101050.34;;;6.58;95.76
49072;BME280;52656;52.610;10.236;2023-02-22T05:49:49;101053.84;;;6.59;94.86
49072;BME280;52656;52.610;10.236;2023-02-22T05:52:14;101049.50;;;6.55;94.53
49072;BME280;52656;52.610;10.236;2023-02-22T05:54:40;101048.72;;;6.50;94.61
49072;BME280;52656;52.610;10.236;2023-02-22T05:57:05;101049.72;;;6.43;94.48
49072;BME280;52656;52.610;10.236;2023-02-22T05:59:30;101050.81;;;6.29;96.39
49072;BME280;52656;52.610;10.236;2023-02-22T06:01:57;101046.53;;;6.24;96.57
49072;BME280;52656;52.610;10.236;2023-02-22T06:04:22;101043.94;;;6.21;95.90
49072;BME280;52656;52.610;10.236;2023-02-22T06:06:48;101044.94;;;6.13;96.49
49072;BME280;52656;52.610;10.236;2023-02-22T06:09:13;101045.88;;;6.08;97.04
49072;BME280;52656;52.610;10.236;2023-02-22T06:11:39;101038.09;;;6.02;98.45
49072;BME280;52656;52.610;10.236;2023-02-22T06:14:04;101043.41;;;6.00;98.35
49072;BME280;52656;52.610;10.236;2023-02-22T06:16:29;101039.13;;;5.93;98.89
49072;BME280;52656;52.610;10.236;2023-02-22T06:18:56;101036.50;;;5.93;98.80
49072;BME280;52656;52.610;10.236;2023-02-22T06:21:21;101028.50;;;5.99;97.87
49072;BME280;52656;52.610;10.236;2023-02-22T06:23:47;101032.06;;;5.97;98.18
49072;BME280;52656;52.610;10.236;2023-02-22T06:26:15;101030.47;;;5.86;98.19
49072;BME280;52656;52.610;10.236;2023-02-22T06:28:40;101032.16;;;5.89;99.15
49072;BME280;52656;52.610;10.236;2023-02-22T06:31:06;101041.53;;;5.50;100.00
49072;BME280;52656;52.610;10.236;2023-02-22T06:33:31;101042.47;;;5.46;100.00
49072;BME280;52656;52.610;10.236;2023-02-22T06:35:56;101045.97;;;5.46;100.00
49072;BME280;52656;52.610;10.236;2023-02-22T06:38:24;101036.94;;;6.20;99.63
49072;BME280;52656;52.610;10.236;2023-02-22T06:40:50;101033.81;;;6.50;96.79
49072;BME280;52656;52.610;10.236;2023-02-22T06:43:16;101038.03;;;6.57;95.66
49072;BME280;52656;52.610;10.236;2023-02-22T06:45:41;101041.16;;;6.79;94.84
49072;BME280;52656;52.610;10.236;2023-02-22T06:48:07;101033.13;;;6.85;94.54
49072;BME280;52656;52.610;10.236;2023-02-22T06:50:33;101032.97;;;6.93;93.56
49072;BME280;52656;52.610;10.236;2023-02-22T06:52:59;101044.06;;;7.09;93.30
49072;BME280;52656;52.610;10.236;2023-02-22T06:55:29;101041.22;;;7.20;91.74
49072;BME280;52656;52.610;10.236;2023-02-22T06:57:55;101036.66;;;7.28;91.55
49072;BME280;52656;52.610;10.236;2023-02-22T07:00:23;101039.91;;;6.97;92.78
49072;BME280;52656;52.610;10.236;2023-02-22T07:02:49;101036.50;;;6.92;92.37
49072;BME280;52656;52.610;10.236;2023-02-22T07:05:18;101028.31;;;7.06;91.84
49072;BME280;52656;52.610;10.236;2023-02-22T07:07:44;101030.81;;;7.12;91.98
49072;BME280;52656;52.610;10.236;2023-02-22T07:10:24;101035.69;;;7.32;90.83
49072;BME280;52656;52.610;10.236;2023-02-22T07:12:50;101035.84;;;7.24;91.64
49072;BME280;52656;52.610;10.236;2023-02-22T07:15:17;101027.50;;;7.44;90.74
49072;BME280;52656;52.610;10.236;2023-02-22T07:17:43;101026.50;;;7.50;89.75
49072;BME280;52656;52.610;10.236;2023-02-22T07:20:09;101028.34;;;7.46;90.02
49072;BME280;52656;52.610;10.236;2023-02-22T07:22:36;101030.31;;;7.36;89.84
49072;BME280;52656;52.610;10.236;2023-02-22T07:25:04;101036.59;;;7.70;89.20
49072;BME280;52656;52.610;10.236;2023-02-22T07:27:29;101027.53;;;7.81;88.50
49072;BME280;52656;52.610;10.236;2023-02-22T07:29:55;101034.13;;;7.99;87.27
49072;BME280;52656;52.610;10.236;2023-02-22T07:32:20;101032.19;;;8.06;87.03
49072;BME280;52656;52.610;10.236;2023-02-22T07:34:45;101021.47;;;8.12;86.50
49072;BME280;52656;52.610;10.236;2023-02-22T07:37:10;101024.66;;;8.26;85.41
49072;BME280;52656;52.610;10.236;2023-02-22T07:39:36;101026.06;;;8.41;85.44
49072;BME280;52656;52.610;10.236;2023-02-22T07:42:02;101024.22;;;8.45;84.43
49072;BME280;52656;52.610;10.236;2023-02-22T07:44:29;101020.44;;;8.53;83.79
49072;BME280;52656;52.610;10.236;2023-02-22T07:46:54;101020.47;;;8.84;82.20
49072;BME280;52656;52.610;10.236;2023-02-22T07:49:20;101017.78;;;8.55;83.57
49072;BME280;52656;52.610;10.236;2023-02-22T07:51:45;101009.16;;;8.79;82.23
49072;BME280;52656;52.610;10.236;2023-02-22T07:54:10;101015.19;;;8.84;82.11
49072;BME280;52656;52.610;10.236;2023-02-22T07:56:35;101011.53;;;8.88;81.27
49072;BME280;52656;52.610;10.236;2023-02-22T07:59:01;101013.25;;;8.91;81.66
49072;BME280;52656;52.610;10.236;2023-02-22T08:01:26;101016.63;;;8.96;81.23
49072;BME280;52656;52.610;10.236;2023-02-22T08:03:52;101015.66;;;8.99;80.75
49072;BME280;52656;52.610;10.236;2023-02-22T08:06:18;101022.44;;;9.09;81.01
49072;BME280;52656;52.610;10.236;2023-02-22T08:08:45;101022.22;;;9.15;79.76
49072;BME280;52656;52.610;10.236;2023-02-22T08:11:10;101023.81;;;9.22;79.12
49072;BME280;52656;52.610;10.236;2023-02-22T08:13:37;101013.19;;;9.52;77.69
49072;BME280;52656;52.610;10.236;2023-02-22T08:16:03;101026.56;;;9.47;78.34
49072;BME280;52656;52.610;10.236;2023-02-22T08:18:28;101022.28;;;9.43;77.43
49072;BME280;52656;52.610;10.236;2023-02-22T08:20:54;101017.97;;;9.39;77.40
49072;BME280;52656;52.610;10.236;2023-02-22T08:23:21;101014.94;;;9.23;77.45
49072;BME280;52656;52.610;10.236;2023-02-22T08:25:47;101021.78;;;9.01;78.20
49072;BME280;52656;52.610;10.236;2023-02-22T08:28:15;101013.75;;;9.33;77.31
49072;BME280;52656;52.610;10.236;2023-02-22T08:30:41;101015.63;;;9.58;75.64
49072;BME280;52656;52.610;10.236;2023-02-22T08:33:08;101014.59;;;9.63;75.94
49072;BME280;52656;52.610;10.236;2023-02-22T08:35:34;101008.59;;;9.86;75.27
49072;BME280;52656;52.610;10.236;2023-02-22T08:38:04;101012.66;;;9.97;74.58
49072;BME280;52656;52.610;10.236;2023-02-22T08:40:35;101010.97;;;10.21;73.98
49072;BME280;52656;52.610;10.236;2023-02-22T08:43:00;101005.84;;;10.16;74.09
49072;BME280;52656;52.610;10.236;2023-02-22T08:45:26;100995.84;;;9.99;73.98
49072;BME280;52656;52.610;10.236;2023-02-22T08:47:51;100999.81;;;9.84;73.90
49072;BME280;52656;52.610;10.236;2023-02-22T08:50:23;100996.16;;;9.88;73.12
49072;BME280;52656;52.610;10.236;2023-02-22T08:52:53;101004.19;;;10.13;72.96
49072;BME280;52656;52.610;10.236;2023-02-22T08:55:25;100987.94;;;10.49;72.58
49072;BME280;52656;52.610;10.236;2023-02-22T08:57:50;100993.81;;;10.57;71.30
49072;BME280;52656;52.610;10.236;2023-02-22T09:00:20;100999.09;;;10.32;70.31
49072;BME280;52656;52.610;10.236;2023-02-22T09:02:48;100994.94;;;10.25;71.92
49072;BME280;52656;52.610;10.236;2023-02-22T09:05:14;100993.38;;;10.69;71.53
49072;BME280;52656;52.610;10.236;2023-02-22T09:07:41;100991.47;;;10.73;71.08
49072;BME280;52656;52.610;10.236;2023-02-22T09:10:07;100995.88;;;10.98;70.37
49072;BME280;52656;52.610;10.236;2023-02-22T09:12:33;100993.22;;;10.98;69.09
49072;BME280;52656;52.610;10.236;2023-02-22T09:14:58;100980.44;;;11.09;69.61
49072;BME280;52656;52.610;10.236;2023-02-22T09:17:23;100990.19;;;11.08;69.10
49072;BME280;52656;52.610;10.236;2023-02-22T09:19:49;100987.56;;;11.07;68.94
49072;BME280;52656;52.610;10.236;2023-02-22T09:22:14;100985.84;;;11.29;69.12
49072;BME280;52656;52.610;10.236;2023-02-22T09:24:39;100988.94;;;11.17;69.38
49072;BME280;52656;52.610;10.236;2023-02-22T09:27:07;100979.44;;;11.79;67.13
49072;BME280;52656;52.610;10.236;2023-02-22T09:29:34;100979.34;;;12.02;65.97
49072;BME280;52656;52.610;10.236;2023-02-22T09:31:59;100978.72;;;12.17;66.04
49072;BME280;52656;52.610;10.236;2023-02-22T09:34:25;100977.41;;;12.28;64.56
49072;BME280;52656;52.610;10.236;2023-02-22T09:36:59;100978.84;;;12.35;63.66
49072;BME280;52656;52.610;10.236;2023-02-22T09:39:24;100969.63;;;12.64;61.95
49072;BME280;52656;52.610;10.236;2023-02-22T09:42:02;100968.81;;;12.82;62.01
49072;BME280;52656;52.610;10.236;2023-02-22T09:47:16;100961.47;;;13.25;60.81
49072;BME280;52656;52.610;10.236;2023-02-22T09:49:51;100958.25;;;13.00;61.76
49072;BME280;52656;52.610;10.236;2023-02-22T09:52:31;100956.69;;;13.14;61.45
49072;BME280;52656;52.610;10.236;2023-02-22T09:55:07;100963.84;;;12.34;62.86
49072;BME280;52656;52.610;10.236;2023-02-22T09:57:36;100964.13;;;12.28;63.33
49072;BME280;52656;52.610;10.236;2023-02-22T10:00:19;100957.41;;;12.60;62.06
49072;BME280;52656;52.610;10.236;2023-02-22T10:05:36;100953.69;;;12.64;62.52
49072;BME280;52656;52.610;10.236;2023-02-22T10:08:09;100944.25;;;12.96;61.86
49072;BME280;52656;52.610;10.236;2023-02-22T10:10:39;100934.69;;;13.11;61.43
49072;BME280;52656;52.610;10.236;2023-02-22T10:13:51;100939.41;;;13.23;59.52
49072;BME280;52656;52.610;10.236;2023-02-22T10:19:21;100933.06;;;13.26;60.30
49072;BME280;52656;52.610;10.236;2023-02-22T10:21:53;100929.50;;;13.63;59.52
49072;BME280;52656;52.610;10.236;2023-02-22T10:27:21;100930.13;;;14.04;56.83
49072;BME280;52656;52.610;10.236;2023-02-22T10:30:01;100932.50;;;14.43;56.43
49072;BME280;52656;52.610;10.236;2023-02-22T10:32:35;100927.38;;;14.56;56.53
49072;BME280;52656;52.610;10.236;2023-02-22T10:35:17;100927.88;;;14.30;56.80
49072;BME280;52656;52.610;10.236;2023-02-22T10:37:44;100925.09;;;13.98;57.33
49072;BME280;52656;52.610;10.236;2023-02-22T10:40:14;100925.72;;;14.03;57.43
49072;BME280;52656;52.610;10.236;2023-02-22T10:42:44;100915.38;;;13.97;57.32
49072;BME280;52656;52.610;10.236;2023-02-22T10:45:31;100925.16;;;13.96;57.21
49072;BME280;52656;52.610;10.236;2023-02-22T10:47:59;100913.31;;;14.19;56.78
49072;BME280;52656;52.610;10.236;2023-02-22T10:50:29;100908.47;;;14.28;57.02
49072;BME280;52656;52.610;10.236;2023-02-22T10:52:55;100909.81;;;14.02;56.89
49072;BME280;52656;52.610;10.236;2023-02-22T10:55:20;100916.84;;;14.03;56.65
49072;BME280;52656;52.610;10.236;2023-02-22T10:57:48;100906.59;;;14.12;57.30
49072;BME280;52656;52.610;10.236;2023-02-22T11:03:01;100900.25;;;14.15;57.15
49072;BME280;52656;52.610;10.236;2023-02-22T11:05:37;100897.69;;;13.96;58.31
49072;BME280;52656;52.610;10.236;2023-02-22T11:10:54;100889.97;;;14.07;57.33
49072;BME280;52656;52.610;10.236;2023-02-22T11:13:29;100888.34;;;13.34;58.03
49072;BME280;52656;52.610;10.236;2023-02-22T11:16:01;100893.38;;;13.04;58.86
49072;BME280;52656;52.610;10.236;2023-02-22T11:18:41;100898.66;;;12.85;60.12
49072;BME280;52656;52.610;10.236;2023-02-22T11:21:07;100889.66;;;13.25;59.48
49072;BME280;52656;52.610;10.236;2023-02-22T11:23:40;100877.38;;;13.59;58.76
49072;BME280;52656;52.610;10.236;2023-02-22T11:26:09;100873.63;;;13.97;58.08
49072;BME280;52656;52.610;10.236;2023-02-22T11:28:46;100875.16;;;14.36;57.12
49072;BME280;52656;52.610;10.236;2023-02-22T11:31:21;100872.00;;;13.78;56.64
49072;BME280;52656;52.610;10.236;2023-02-22T11:33:55;100864.34;;;13.35;58.04
49072;BME280;52656;52.610;10.236;2023-02-22T11:36:40;100865.44;;;13.48;58.12
49072;BME280;52656;52.610;10.236;2023-02-22T11:39:24;100862.53;;;13.53;58.22
49072;BME280;52656;52.610;10.236;2023-02-22T11:41:50;100852.66;;;13.91;57.63
49072;BME280;52656;52.610;10.236;2023-02-22T11:44:22;100849.00;;;13.58;57.93
49072;BME280;52656;52.610;10.236;2023-02-22T11:46:49;100848.53;;;13.32;58.21
49072;BME280;52656;52.610;10.236;2023-02-22T11:49:16;100844.69;;;13.38;58.46
49072;BME280;52656;52.610;10.236;2023-02-22T12:08:42;100812.91;;;13.35;59.71
49072;BME280;52656;52.610;10.236;2023-02-22T12:14:15;100810.97;;;13.56;59.26
49072;BME280;52656;52.610;10.236;2023-02-22T12:24:42;100804.66;;;13.58;59.51
49072;BME280;52656;52.610;10.236;2023-02-22T12:27:14;100806.66;;;13.53;59.49
49072;BME280;52656;52.610;10.236;2023-02-22T12:29:46;100801.91;;;13.60;58.72
49072;BME280;52656;52.610;10.236;2023-02-22T12:32:33;100803.84;;;13.39;59.18
49072;BME280;52656;52.610;10.236;2023-02-22T12:35:18;100805.88;;;13.51;59.03
49072;BME280;52656;52.610;10.236;2023-02-22T12:38:12;100794.94;;;13.40;59.61
49072;BME280;52656;52.610;10.236;2023-02-22T12:43:16;100797.31;;;13.81;58.57
49072;BME280;52656;52.610;10.236;2023-02-22T12:48:34;100782.94;;;14.16;58.29
49072;BME280;52656;52.610;10.236;2023-02-22T12:51:14;100789.16;;;14.33;57.38
49072;BME280;52656;52.610;10.236;2023-02-22T12:53:51;100785.22;;;13.91;58.78
49072;BME280;52656;52.610;10.236;2023-02-22T12:58:59;100779.22;;;13.70;58.79
49072;BME280;52656;52.610;10.236;2023-02-22T13:01:37;100775.03;;;13.99;57.88
49072;BME280;52656;52.610;10.236;2023-02-22T13:04:04;100778.25;;;14.21;57.69
49072;BME280;52656;52.610;10.236;2023-02-22T13:06:55;100766.94;;;14.01;57.92
49072;BME280;52656;52.610;10.236;2023-02-22T13:09:45;100771.72;;;14.27;57.10
49072;BME280;52656;52.610;10.236;2023-02-22T13:12:35;100771.13;;;14.22;57.24
49072;BME280;52656;52.610;10.236;2023-02-22T13:15:19;100766.75;;;14.53;57.08
49072;BME280;52656;52.610;10.236;2023-02-22T13:23:42;100756.19;;;14.35;57.86
49072;BME280;52656;52.610;10.236;2023-02-22T13:26:27;100746.69;;;14.30;57.83
49072;BME280;52656;52.610;10.236;2023-02-22T13:39:46;100734.97;;;14.01;59.17
49072;BME280;52656;52.610;10.236;2023-02-22T13:42:36;100735.53;;;14.39;58.48
49072;BME280;52656;52.610;10.236;2023-02-22T13:51:04;100737.34;;;14.38;59.07
49072;BME280;52656;52.610;10.236;2023-02-22T13:53:40;100734.09;;;14.49;58.08
49072;BME280;52656;52.610;10.236;2023-02-22T13:56:08;100738.44;;;14.34;57.94
49072;BME280;52656;52.610;10.236;2023-02-22T13:58:46;100726.16;;;14.16;58.46
49072;BME280;52656;52.610;10.236;2023-02-22T14:07:01;100717.75;;;14.23;57.77
49072;BME280;52656;52.610;10.236;2023-02-22T14:17:35;100705.69;;;14.64;57.19
49072;BME280;52656;52.610;10.236;2023-02-22T14:20:20;100706.38;;;14.83;57.64
49072;BME280;52656;52.610;10.236;2023-02-22T14:22:54;100713.59;;;14.65;58.13
49072;BME280;52656;52.610;10.236;2023-02-22T14:25:39;100709.91;;;14.68;57.89
49072;BME280;52656;52.610;10.236;2023-02-22T14:28:37;100700.47;;;14.62;58.61
49072;BME280;52656;52.610;10.236;2023-02-22T14:31:08;100708.19;;;14.83;57.79
49072;BME280;52656;52.610;10.236;2023-02-22T14:36:14;100699.44;;;14.49;59.03
49072;BME280;52656;52.610;10.236;2023-02-22T14:38:43;100703.03;;;14.48;59.34
49072;BME280;52656;52.610;10.236;2023-02-22T14:41:11;100696.06;;;14.61;59.58
49072;BME280;52656;52.610;10.236;2023-02-22T14:43:39;100706.03;;;14.58;59.43
49072;BME280;52656;52.610;10.236;2023-02-22T14:46:09;100701.34;;;14.31;59.60
49072;BME280;52656;52.610;10.236;2023-02-22T14:48:39;100694.38;;;14.44;60.20
49072;BME280;52656;52.610;10.236;2023-02-22T14:51:25;100695.28;;;14.59;59.69
49072;BME280;52656;52.610;10.236;2023-02-22T14:53:59;100682.16;;;14.40;60.78
49072;BME280;52656;52.610;10.236;2023-02-22T14:57:07;100686.59;;;14.56;60.11